Time;durP1;ratioP1;P1;durP2;ratioP2;P2;SDS_P1;SDS_P2;PMS_P1;PMS_P2;Temp;Humidity;BMP_temperature;BMP_pressure;BME280_temperature;BME280_humidity;BME280_pressure;Samples;Min_cycle;Max_cycle;Signal;HPM_P1;HPM_P2
2021/08/12 00:01:55;;;;;;;8.87;5.80;;;15.80;99.90;;;;;;5043165;28;20249;-46
2021/08/12 00:04:22;;;;;;;6.70;5.77;;;15.90;99.90;;;;;;5041691;28;20195;-43
2021/08/12 00:06:48;;;;;;;6.20;5.70;;;15.90;99.90;;;;;;5035109;28;20222;-44
2021/08/12 00:09:15;;;;;;;7.87;5.83;;;15.80;99.90;;;;;;5040862;28;20199;-43
2021/08/12 00:11:42;;;;;;;5.57;5.17;;;15.80;99.90;;;;;;5043316;28;20266;-45
2021/08/12 00:14:10;;;;;;;6.20;5.70;;;15.70;99.90;;;;;;5022571;28;20199;-46
2021/08/12 00:16:37;;;;;;;6.30;5.57;;;15.70;99.90;;;;;;5043550;28;20618;-44
2021/08/12 00:19:04;;;;;;;7.00;6.30;;;15.80;99.90;;;;;;5039012;28;20911;-44
2021/08/12 00:21:32;;;;;;;6.90;6.20;;;15.80;99.90;;;;;;5043760;28;20210;-44
2021/08/12 00:23:59;;;;;;;6.63;6.03;;;15.70;99.90;;;;;;5040650;28;20187;-43
2021/08/12 00:26:26;;;;;;;6.77;5.60;;;15.70;99.90;;;;;;5042534;28;20191;-44
2021/08/12 00:28:52;;;;;;;6.77;6.10;;;15.70;99.90;;;;;;5025336;28;20604;-42
2021/08/12 00:31:20;;;;;;;7.63;6.20;;;15.60;99.90;;;;;;5041518;28;20183;-44
2021/08/12 00:33:47;;;;;;;7.13;6.53;;;15.60;99.90;;;;;;5042760;28;20203;-44
2021/08/12 00:36:13;;;;;;;8.10;6.80;;;15.50;99.90;;;;;;5039026;28;20888;-44
2021/08/12 00:38:41;;;;;;;7.57;6.77;;;15.40;99.90;;;;;;5041722;28;20281;-43
2021/08/12 00:41:07;;;;;;;9.63;6.53;;;15.50;99.90;;;;;;5037756;28;20187;-47
2021/08/12 00:43:35;;;;;;;8.17;6.30;;;15.40;99.90;;;;;;5041009;28;20584;-45
2021/08/12 00:46:02;;;;;;;7.77;6.50;;;15.40;99.90;;;;;;5022315;28;20206;-45
2021/08/12 00:48:30;;;;;;;10.53;6.47;;;15.40;99.90;;;;;;5041919;28;20322;-43
2021/08/12 00:50:59;;;;;;;6.03;5.53;;;15.40;99.90;;;;;;5038910;28;20227;-44
2021/08/12 00:53:27;;;;;;;6.53;5.97;;;15.40;99.90;;;;;;5043260;28;20205;-43
2021/08/12 00:55:53;;;;;;;6.37;5.43;;;15.40;99.90;;;;;;5039725;28;20615;-43
2021/08/12 00:58:21;;;;;;;6.20;5.67;;;15.50;99.90;;;;;;5040154;28;20215;-44
2021/08/12 01:00:50;;;;;;;9.20;6.83;;;15.50;99.90;;;;;;5024243;28;20208;-43
2021/08/12 01:03:18;;;;;;;6.93;6.20;;;15.50;99.90;;;;;;5040034;28;20188;-47
2021/08/12 01:05:47;;;;;;;6.57;5.60;;;15.40;99.90;;;;;;5041688;28;20282;-44
2021/08/12 01:08:24;;;;;;;7.93;6.67;;;15.30;99.90;;;;;;5039377;28;20246;-46
2021/08/12 01:10:57;;;;;;;6.60;5.97;;;15.30;99.90;;;;;;5040055;28;20701;-44
2021/08/12 01:13:35;;;;;;;8.57;6.83;;;15.30;99.90;;;;;;5039310;28;20214;-45
2021/08/12 01:16:04;;;;;;;7.23;6.53;;;15.30;99.90;;;;;;5023500;28;20797;-45
2021/08/12 01:18:36;;;;;;;7.80;7.10;;;15.30;99.90;;;;;;5046926;28;20804;-44
2021/08/12 01:21:35;;;;;;;8.00;7.07;;;15.30;99.90;;;;;;5029202;28;20221;-46
2021/08/12 01:24:08;;;;;;;10.13;7.33;;;15.30;99.90;;;;;;5035336;28;20692;-44
2021/08/12 01:26:39;;;;;;;7.67;6.50;;;15.30;99.90;;;;;;5039773;28;20196;-44
2021/08/12 01:29:10;;;;;;;7.53;6.87;;;15.20;99.90;;;;;;5037982;28;20207;-43
2021/08/12 01:31:47;;;;;;;6.43;5.83;;;15.20;99.90;;;;;;5041803;28;20195;-44
2021/08/12 01:34:21;;;;;;;7.60;6.70;;;15.20;99.90;;;;;;5028110;28;20214;-44
2021/08/12 01:36:54;;;;;;;8.30;6.70;;;15.20;99.90;;;;;;5042190;28;20192;-44
2021/08/12 01:39:24;;;;;;;8.33;6.63;;;15.10;99.90;;;;;;5041826;28;20239;-44
2021/08/12 01:41:54;;;;;;;9.33;6.37;;;15.10;99.90;;;;;;5044384;28;20195;-46
2021/08/12 01:44:23;;;;;;;7.07;6.40;;;15.10;99.90;;;;;;5055462;28;20950;-46
2021/08/12 01:46:52;;;;;;;7.97;7.17;;;15.20;99.90;;;;;;5056172;28;20622;-44
2021/08/12 01:49:20;;;;;;;7.50;6.80;;;15.10;99.90;;;;;;5036175;28;20946;-43
2021/08/12 01:51:51;;;;;;;6.90;6.20;;;15.10;99.90;;;;;;5044443;28;20242;-44
2021/08/12 01:54:19;;;;;;;7.90;6.60;;;15.10;99.90;;;;;;5042937;28;20218;-44
2021/08/12 01:56:46;;;;;;;7.67;6.97;;;15.10;99.90;;;;;;5044429;28;20215;-43
2021/08/12 01:59:15;;;;;;;8.13;7.30;;;15.10;99.90;;;;;;5040917;28;20979;-43
2021/08/12 02:01:46;;;;;;;6.70;6.10;;;15.00;99.90;;;;;;5045162;28;20656;-44
2021/08/12 02:04:13;;;;;;;8.93;6.43;;;15.00;99.90;;;;;;5025466;28;20864;-43
2021/08/12 02:06:40;;;;;;;7.00;6.37;;;15.00;99.90;;;;;;5044759;28;20237;-43
2021/08/12 02:09:09;;;;;;;7.83;6.90;;;14.90;99.90;;;;;;5039321;28;20231;-43
2021/08/12 02:11:36;;;;;;;7.10;6.50;;;15.00;99.90;;;;;;5044467;28;20195;-44
2021/08/12 02:14:03;;;;;;;6.50;6.00;;;14.90;99.90;;;;;;5041914;28;20598;-46
2021/08/12 02:16:30;;;;;;;6.73;5.80;;;14.90;99.90;;;;;;5044699;28;20250;-43
2021/08/12 02:18:57;;;;;;;8.83;6.70;;;14.80;99.90;;;;;;5021049;28;20227;-44
2021/08/12 02:21:33;;;;;;;8.50;6.80;;;14.90;99.90;;;;;;5043165;28;20424;-43
2021/08/12 02:24:03;;;;;;;9.70;6.93;;;14.90;99.90;;;;;;5034531;28;20269;-43
2021/08/12 02:26:36;;;;;;;8.57;6.23;;;14.80;99.90;;;;;;5039130;28;20289;-44
2021/08/12 02:29:05;;;;;;;7.07;6.47;;;14.80;99.90;;;;;;5036322;28;20219;-46
2021/08/12 02:31:32;;;;;;;8.00;7.20;;;14.80;99.90;;;;;;5039093;28;20211;-45
2021/08/12 02:34:00;;;;;;;7.33;6.63;;;14.70;99.90;;;;;;5020210;28;20699;-43
2021/08/12 02:36:30;;;;;;;7.30;6.70;;;14.70;99.90;;;;;;5038181;28;20227;-43
2021/08/12 02:38:59;;;;;;;8.53;7.00;;;14.60;99.90;;;;;;5027762;28;20278;-44
2021/08/12 02:41:26;;;;;;;7.60;6.90;;;14.70;99.90;;;;;;5029286;28;20662;-44
2021/08/12 02:43:56;;;;;;;6.90;6.37;;;14.60;99.90;;;;;;5035302;28;20211;-44
2021/08/12 02:46:26;;;;;;;7.20;6.50;;;14.60;99.90;;;;;;5040384;28;20198;-43
2021/08/12 02:48:55;;;;;;;7.70;6.90;;;14.60;99.90;;;;;;5029068;28;20910;-47
2021/08/12 02:51:27;;;;;;;7.40;6.70;;;14.60;99.90;;;;;;5023628;28;20330;-45
2021/08/12 02:53:56;;;;;;;9.53;7.00;;;14.60;99.90;;;;;;5040384;28;20191;-45
2021/08/12 02:56:25;;;;;;;9.37;7.03;;;14.60;99.90;;;;;;5031045;28;20218;-43
2021/08/12 02:58:55;;;;;;;8.60;6.87;;;14.60;99.90;;;;;;5038475;28;20294;-43
2021/08/12 03:01:24;;;;;;;7.13;6.53;;;14.60;99.90;;;;;;5033015;28;20211;-42
2021/08/12 03:03:52;;;;;;;7.83;6.83;;;14.50;99.90;;;;;;5031503;28;20204;-44
2021/08/12 03:06:21;;;;;;;7.00;6.30;;;14.50;99.90;;;;;;5024322;28;20211;-45
2021/08/12 03:08:50;;;;;;;6.70;6.10;;;14.60;99.90;;;;;;5041031;28;20426;-45
2021/08/12 03:11:19;;;;;;;7.17;6.40;;;14.50;99.90;;;;;;5039064;28;20192;-43
2021/08/12 03:13:48;;;;;;;9.13;6.70;;;14.50;99.90;;;;;;5033628;28;20192;-43
2021/08/12 03:16:17;;;;;;;7.63;6.87;;;14.50;99.90;;;;;;5025233;28;20312;-43
2021/08/12 03:18:44;;;;;;;7.30;6.60;;;14.50;99.90;;;;;;5038745;28;20561;-43
2021/08/12 03:21:12;;;;;;;7.50;6.87;;;14.50;99.90;;;;;;5028944;28;20665;-44
2021/08/12 03:23:41;;;;;;;8.70;7.17;;;14.40;99.90;;;;;;5039818;28;20188;-43
2021/08/12 03:26:10;;;;;;;6.37;5.87;;;14.40;99.90;;;;;;5044369;28;20199;-43
2021/08/12 03:28:37;;;;;;;6.87;6.27;;;14.50;99.90;;;;;;5032069;28;20227;-43
2021/08/12 03:31:05;;;;;;;6.90;6.40;;;14.40;99.90;;;;;;5043269;28;20192;-44
2021/08/12 03:33:33;;;;;;;7.70;7.00;;;14.40;99.90;;;;;;5039331;28;20218;-43
2021/08/12 03:36:00;;;;;;;7.03;5.83;;;14.40;99.90;;;;;;5043496;28;20192;-43
2021/08/12 03:38:27;;;;;;;7.17;6.57;;;14.40;99.90;;;;;;5024077;28;20230;-45
2021/08/12 03:40:54;;;;;;;7.97;7.10;;;14.50;99.90;;;;;;5043180;28;20245;-44
2021/08/12 03:43:21;;;;;;;7.47;6.87;;;14.50;99.90;;;;;;5039790;28;20195;-46
2021/08/12 03:45:47;;;;;;;7.10;6.50;;;14.50;99.90;;;;;;5042696;28;20199;-44
2021/08/12 03:48:14;;;;;;;8.47;7.00;;;14.40;99.90;;;;;;5042968;28;20787;-45
2021/08/12 03:50:42;;;;;;;7.50;6.80;;;14.40;99.90;;;;;;5041141;28;20270;-44
2021/08/12 03:53:09;;;;;;;7.47;6.87;;;14.40;99.90;;;;;;5027887;28;20695;-43
2021/08/12 03:55:36;;;;;;;7.20;6.60;;;14.40;99.90;;;;;;5040100;28;20202;-46
2021/08/12 03:58:03;;;;;;;7.47;6.73;;;14.30;99.90;;;;;;5038598;28;20230;-43
2021/08/12 04:00:30;;;;;;;7.70;7.00;;;14.30;99.90;;;;;;5027611;28;20227;-46
2021/08/12 04:02:57;;;;;;;8.60;7.73;;;14.40;99.90;;;;;;5043138;28;20199;-44
2021/08/12 04:05:23;;;;;;;7.07;6.47;;;14.40;99.90;;;;;;5034907;28;20272;-44
2021/08/12 04:07:51;;;;;;;10.03;8.10;;;14.30;99.90;;;;;;5027172;28;20211;-44
2021/08/12 04:10:18;;;;;;;8.17;6.90;;;14.40;99.90;;;;;;5040217;28;20195;-43
2021/08/12 04:12:45;;;;;;;7.83;6.80;;;14.40;99.90;;;;;;5041410;28;20183;-46
2021/08/12 04:15:12;;;;;;;8.00;7.30;;;14.40;99.90;;;;;;5041734;28;20556;-44
2021/08/12 04:17:38;;;;;;;7.60;6.80;;;14.40;99.90;;;;;;5041609;28;20849;-45
2021/08/12 04:20:06;;;;;;;8.67;7.97;;;14.30;99.90;;;;;;5042541;28;20230;-43
2021/08/12 04:22:33;;;;;;;7.60;7.00;;;14.40;99.90;;;;;;5017073;28;20937;-47
2021/08/12 04:25:01;;;;;;;8.30;7.53;;;14.40;99.90;;;;;;5042158;28;20268;-44
2021/08/12 04:27:28;;;;;;;9.43;7.17;;;14.40;99.90;;;;;;5034316;28;20190;-49
2021/08/12 04:29:55;;;;;;;8.97;7.43;;;14.40;99.90;;;;;;5043526;28;20286;-44
2021/08/12 04:32:22;;;;;;;7.17;6.57;;;14.40;99.90;;;;;;5040575;28;20190;-45
2021/08/12 04:34:48;;;;;;;7.23;6.63;;;14.40;99.90;;;;;;5043275;28;20191;-43
2021/08/12 04:37:15;;;;;;;8.20;7.40;;;14.40;99.90;;;;;;5035368;28;20199;-43
2021/08/12 04:39:42;;;;;;;8.53;7.50;;;14.40;99.90;;;;;;5017501;28;20261;-42
2021/08/12 04:42:10;;;;;;;7.27;6.77;;;14.40;99.90;;;;;;5056107;28;20265;-45
2021/08/12 04:44:37;;;;;;;8.07;7.37;;;14.40;99.90;;;;;;5040453;28;20235;-44
2021/08/12 04:47:05;;;;;;;8.03;7.40;;;14.50;99.90;;;;;;5036504;28;20202;-44
2021/08/12 04:49:32;;;;;;;8.30;7.47;;;14.50;99.90;;;;;;5041298;28;20693;-43
2021/08/12 04:51:59;;;;;;;8.13;7.40;;;14.50;99.90;;;;;;5034832;28;20208;-43
2021/08/12 04:54:26;;;;;;;8.17;7.33;;;14.60;99.90;;;;;;5023016;28;20214;-42
2021/08/12 04:56:54;;;;;;;8.73;7.83;;;14.60;99.90;;;;;;5026500;28;20208;-44
2021/08/12 04:59:22;;;;;;;8.50;7.70;;;14.70;99.90;;;;;;5039872;28;20586;-43
2021/08/12 05:01:48;;;;;;;8.40;7.70;;;14.70;99.90;;;;;;5035298;28;20199;-43
2021/08/12 05:04:16;;;;;;;7.57;6.87;;;14.70;99.90;;;;;;5041637;28;20187;-46
2021/08/12 05:06:42;;;;;;;8.20;7.43;;;14.80;99.90;;;;;;5039269;28;20676;-42
2021/08/12 05:09:09;;;;;;;9.13;8.30;;;14.80;99.90;;;;;;5020283;28;20721;-45
2021/08/12 05:11:36;;;;;;;8.33;7.53;;;14.80;99.90;;;;;;5040459;28;20207;-43
2021/08/12 05:14:04;;;;;;;8.57;7.70;;;14.90;99.90;;;;;;5040440;28;20190;-44
2021/08/12 05:16:32;;;;;;;9.67;8.13;;;14.90;99.90;;;;;;5046990;28;20194;-46
2021/08/12 05:18:59;;;;;;;8.50;7.70;;;15.00;99.90;;;;;;5038627;28;20696;-44
2021/08/12 05:21:25;;;;;;;8.40;7.60;;;15.00;99.90;;;;;;5046008;28;20219;-44
2021/08/12 05:23:53;;;;;;;8.30;7.43;;;15.00;99.90;;;;;;5037122;28;20191;-43
2021/08/12 05:26:21;;;;;;;8.37;7.57;;;15.10;99.90;;;;;;5030093;28;20265;-46
2021/08/12 05:28:47;;;;;;;10.03;7.83;;;15.10;99.90;;;;;;5034527;28;20317;-46
2021/08/12 05:31:15;;;;;;;7.93;7.23;;;15.20;99.90;;;;;;5043410;28;20568;-43
2021/08/12 05:33:44;;;;;;;9.77;7.83;;;15.20;99.90;;;;;;5040820;28;20207;-44
2021/08/12 05:36:10;;;;;;;8.33;7.63;;;15.20;99.90;;;;;;5045673;28;20195;-45
2021/08/12 05:38:37;;;;;;;8.50;7.60;;;15.20;99.90;;;;;;5043431;28;20207;-46
2021/08/12 05:41:04;;;;;;;8.03;7.33;;;15.20;99.90;;;;;;5023840;28;20219;-45
2021/08/12 05:43:30;;;;;;;11.47;7.80;;;15.30;99.90;;;;;;5043124;28;20179;-43
2021/08/12 05:45:58;;;;;;;11.57;7.40;;;15.40;99.90;;;;;;5046153;28;20624;-45
2021/08/12 05:48:25;;;;;;;9.40;8.50;;;15.40;99.90;;;;;;5036905;28;20287;-46
2021/08/12 05:50:53;;;;;;;9.60;8.47;;;15.40;99.90;;;;;;5045590;28;20233;-46
2021/08/12 05:53:21;;;;;;;8.80;8.10;;;15.40;99.90;;;;;;5039859;28;20690;-44
2021/08/12 05:55:48;;;;;;;8.57;7.77;;;15.40;99.90;;;;;;5039519;28;20226;-44
2021/08/12 05:58:16;;;;;;;8.17;7.37;;;15.50;99.90;;;;;;5023861;28;20268;-45
2021/08/12 06:00:43;;;;;;;9.60;8.57;;;15.50;99.90;;;;;;5035820;28;20207;-46
2021/08/12 06:03:12;;;;;;;8.47;7.67;;;15.60;99.90;;;;;;5040202;28;20290;-45
2021/08/12 06:05:39;;;;;;;8.33;7.53;;;15.60;99.90;;;;;;5039762;28;20256;-44
2021/08/12 06:08:10;;;;;;;8.23;7.47;;;15.60;99.90;;;;;;5045299;28;20630;-47
2021/08/12 06:10:38;;;;;;;8.20;7.50;;;15.70;99.90;;;;;;5025949;28;20329;-45
2021/08/12 06:13:05;;;;;;;8.30;7.50;;;15.70;99.90;;;;;;5022139;28;20231;-44
2021/08/12 06:15:35;;;;;;;7.97;7.10;;;15.80;99.90;;;;;;5029532;28;20229;-47
2021/08/12 06:18:07;;;;;;;7.90;7.10;;;15.90;99.90;;;;;;5043811;28;20301;-45
2021/08/12 06:20:34;;;;;;;7.50;6.80;;;16.00;99.90;;;;;;5041356;28;20243;-44
2021/08/12 06:23:05;;;;;;;7.90;7.10;;;16.10;99.90;;;;;;5044447;28;20191;-44
2021/08/12 06:25:34;;;;;;;7.80;6.93;;;16.20;99.90;;;;;;5037436;28;21078;-45
2021/08/12 06:28:01;;;;;;;8.00;7.20;;;16.20;99.90;;;;;;5027355;28;20215;-44
2021/08/12 06:30:28;;;;;;;7.70;7.00;;;16.30;99.90;;;;;;5034025;28;20196;-44
2021/08/12 06:32:55;;;;;;;7.23;6.57;;;16.30;99.90;;;;;;5039737;28;20656;-43
2021/08/12 06:35:22;;;;;;;7.43;6.73;;;16.40;99.90;;;;;;5039835;28;20211;-43
2021/08/12 06:37:52;;;;;;;10.40;7.33;;;16.40;99.90;;;;;;5042363;28;20195;-43
2021/08/12 06:40:22;;;;;;;6.53;5.93;;;16.40;99.90;;;;;;5037172;28;20297;-43
2021/08/12 06:42:51;;;;;;;9.17;6.40;;;16.50;99.90;;;;;;5026867;28;20550;-44
2021/08/12 06:45:20;;;;;;;8.87;7.10;;;16.50;99.90;;;;;;5038593;28;20200;-43
2021/08/12 06:47:47;;;;;;;7.67;7.00;;;16.60;99.90;;;;;;5043654;28;20202;-43
2021/08/12 06:50:15;;;;;;;7.03;6.33;;;16.60;99.90;;;;;;5042852;28;20188;-44
2021/08/12 06:52:42;;;;;;;7.13;6.53;;;16.80;99.90;;;;;;5040172;28;20199;-47
2021/08/12 06:55:10;;;;;;;8.37;6.70;;;16.90;99.90;;;;;;5040945;28;20947;-47
2021/08/12 06:57:37;;;;;;;7.03;6.47;;;16.90;99.90;;;;;;5039194;28;20199;-47
2021/08/12 07:00:07;;;;;;;6.70;6.00;;;17.10;99.90;;;;;;5024598;28;20900;-43
2021/08/12 07:02:35;;;;;;;6.90;6.10;;;17.20;99.90;;;;;;5040760;28;20322;-45
2021/08/12 07:05:01;;;;;;;7.07;6.30;;;17.30;99.90;;;;;;5031398;28;20211;-45
2021/08/12 07:07:29;;;;;;;6.30;5.70;;;17.40;99.90;;;;;;5039025;28;20261;-45
2021/08/12 07:09:55;;;;;;;7.10;6.40;;;17.60;99.90;;;;;;5034230;28;20900;-44
2021/08/12 07:12:24;;;;;;;6.10;5.47;;;17.80;99.90;;;;;;5043491;28;20191;-44
2021/08/12 07:14:52;;;;;;;7.47;5.63;;;17.90;99.90;;;;;;5018437;28;20219;-46
2021/08/12 07:17:20;;;;;;;5.77;5.27;;;18.00;99.90;;;;;;5044647;28;20560;-44
2021/08/12 07:19:48;;;;;;;5.93;5.07;;;18.10;99.90;;;;;;5037627;28;20227;-43
2021/08/12 07:22:15;;;;;;;7.40;5.03;;;18.20;99.90;;;;;;5030065;28;20249;-43
2021/08/12 07:24:42;;;;;;;6.83;5.10;;;18.30;99.90;;;;;;5033578;28;20211;-42
2021/08/12 07:27:08;;;;;;;6.53;4.67;;;18.40;99.90;;;;;;5033753;28;20804;-43
2021/08/12 07:29:35;;;;;;;4.87;4.37;;;18.60;99.90;;;;;;5037797;28;20228;-43
2021/08/12 07:32:03;;;;;;;5.97;5.10;;;18.70;99.90;;;;;;5025368;28;20183;-44
2021/08/12 07:34:36;;;;;;;4.93;4.30;;;18.90;99.90;;;;;;5042254;28;20245;-44
2021/08/12 07:37:03;;;;;;;4.73;4.33;;;19.10;99.90;;;;;;5040187;28;20195;-44
2021/08/12 07:39:30;;;;;;;4.90;4.40;;;19.20;99.90;;;;;;5038035;28;20231;-43
2021/08/12 07:41:58;;;;;;;6.37;4.17;;;19.40;99.90;;;;;;5039779;28;20942;-46
2021/08/12 07:44:24;;;;;;;5.00;4.50;;;19.60;99.90;;;;;;5038346;28;20207;-48
2021/08/12 07:46:51;;;;;;;5.23;4.10;;;19.80;99.90;;;;;;5016744;28;20917;-43
2021/08/12 07:49:17;;;;;;;4.50;4.10;;;19.90;99.90;;;;;;5024203;28;20235;-45
2021/08/12 07:51:46;;;;;;;7.40;4.00;;;20.00;99.90;;;;;;5021977;28;20267;-42
2021/08/12 07:54:12;;;;;;;5.30;4.27;;;20.00;99.90;;;;;;5024463;28;20258;-47
2021/08/12 07:56:39;;;;;;;4.33;3.90;;;20.10;99.90;;;;;;5035449;28;20211;-42
2021/08/12 07:59:06;;;;;;;5.03;3.40;;;20.10;99.90;;;;;;5040761;28;20207;-43
2021/08/12 08:01:32;;;;;;;5.57;4.50;;;20.20;99.90;;;;;;5024825;28;20591;-43
2021/08/12 08:04:00;;;;;;;5.97;4.47;;;20.20;99.90;;;;;;5038176;28;20200;-43
2021/08/12 08:06:26;;;;;;;4.83;4.40;;;20.30;99.90;;;;;;5024231;28;20188;-43
2021/08/12 08:08:54;;;;;;;4.87;4.17;;;20.30;99.90;;;;;;5034234;28;20238;-43
2021/08/12 08:11:21;;;;;;;4.70;4.07;;;20.30;99.90;;;;;;5039316;28;20195;-44
2021/08/12 08:13:49;;;;;;;6.87;4.20;;;20.40;99.90;;;;;;5038242;28;20199;-45
2021/08/12 08:16:16;;;;;;;5.17;4.63;;;20.50;99.90;;;;;;5024040;28;20246;-44
2021/08/12 08:18:42;;;;;;;4.80;4.23;;;20.70;99.90;;;;;;5006445;28;20227;-45
2021/08/12 08:21:09;;;;;;;4.63;4.23;;;20.80;99.90;;;;;;5033280;28;20226;-47
2021/08/12 08:23:36;;;;;;;6.27;4.10;;;20.80;99.90;;;;;;5040178;28;20605;-44
2021/08/12 08:26:03;;;;;;;6.07;4.37;;;20.90;99.90;;;;;;5028177;28;20207;-43
2021/08/12 08:28:30;;;;;;;5.30;4.30;;;20.90;99.90;;;;;;5042497;28;20688;-46
2021/08/12 08:30:57;;;;;;;4.70;4.20;;;21.00;99.90;;;;;;5039940;28;20199;-46
2021/08/12 08:33:23;;;;;;;4.63;4.10;;;21.10;99.90;;;;;;5026470;28;20211;-44
2021/08/12 08:35:50;;;;;;;4.97;3.90;;;21.20;99.90;;;;;;5039615;28;20222;-43
2021/08/12 08:38:16;;;;;;;5.27;4.00;;;21.20;99.90;;;;;;5043249;28;20211;-45
2021/08/12 08:40:43;;;;;;;6.70;4.17;;;21.30;99.90;;;;;;5040840;28;20559;-45
2021/08/12 08:43:13;;;;;;;5.73;4.10;;;21.40;99.90;;;;;;5042043;28;20226;-43
2021/08/12 08:45:44;;;;;;;4.10;3.70;;;21.50;99.90;;;;;;5041314;28;20203;-44
2021/08/12 08:48:15;;;;;;;5.93;4.20;;;21.60;99.90;;;;;;5026875;28;20249;-43
2021/08/12 08:50:44;;;;;;;4.27;3.97;;;21.70;99.90;;;;;;5040345;28;20278;-45
2021/08/12 08:53:16;;;;;;;4.63;4.27;;;21.70;99.90;;;;;;5043166;28;20214;-43
2021/08/12 08:55:43;;;;;;;4.73;4.23;;;21.80;99.90;;;;;;5039111;28;20261;-45
2021/08/12 08:58:12;;;;;;;6.50;3.75;;;21.80;99.90;;;;;;5042916;28;20693;-43
2021/08/12 09:00:39;;;;;;;4.20;3.80;;;21.90;99.90;;;;;;5041206;28;20219;-45
2021/08/12 09:03:06;;;;;;;5.77;4.53;;;22.00;99.90;;;;;;5025899;28;20207;-44
2021/08/12 09:05:34;;;;;;;6.67;4.20;;;22.00;99.90;;;;;;5042352;28;20195;-46
2021/08/12 09:08:01;;;;;;;3.92;3.60;;;22.10;99.90;;;;;;5041205;28;20194;-44
2021/08/12 09:10:28;;;;;;;6.40;4.32;;;22.20;99.90;;;;;;5043047;28;20244;-44
2021/08/12 09:12:55;;;;;;;5.70;4.03;;;22.20;99.90;;;;;;5039828;28;20187;-47
2021/08/12 09:15:23;;;;;;;5.07;4.32;;;22.30;99.90;;;;;;5043382;28;20206;-43
2021/08/12 09:17:53;;;;;;;4.72;4.15;;;22.30;99.90;;;;;;5023322;28;20369;-44
2021/08/12 09:20:21;;;;;;;5.30;3.60;;;22.40;99.90;;;;;;5042949;28;20668;-48
2021/08/12 09:22:51;;;;;;;4.47;4.05;;;22.50;99.90;;;;;;5039091;28;20792;-44
2021/08/12 09:25:29;;;;;;;4.13;3.72;;;22.60;99.90;;;;;;5043376;28;20226;-46
2021/08/12 09:28:13;;;;;;;6.07;4.10;;;22.70;99.90;;;;;;5039831;28;20180;-43
2021/08/12 09:30:42;;;;;;;4.53;4.13;;;22.70;99.90;;;;;;5041204;28;20282;-47
2021/08/12 09:33:14;;;;;;;6.40;3.95;;;22.70;99.90;;;;;;5041660;28;20222;-44
2021/08/12 09:35:41;;;;;;;4.53;4.13;;;22.80;99.90;;;;;;5018351;28;20215;-47
2021/08/12 09:38:09;;;;;;;6.15;4.43;;;22.90;99.90;;;;;;5041224;28;20211;-44
2021/08/12 09:40:37;;;;;;;5.32;3.55;;;23.00;99.90;;;;;;5041610;28;20282;-47
2021/08/12 09:43:05;;;;;;;4.30;4.00;;;22.90;99.90;;;;;;5041068;28;20190;-44
2021/08/12 09:45:34;;;;;;;4.55;4.15;;;23.10;99.90;;;;;;5042494;28;20195;-47
2021/08/12 09:48:12;;;;;;;4.22;3.85;;;23.10;99.90;;;;;;5039918;28;20192;-44
2021/08/12 09:50:40;;;;;;;4.15;3.85;;;23.10;99.90;;;;;;5024534;28;20225;-44
2021/08/12 09:53:07;;;;;;;4.32;4.00;;;23.20;99.90;;;;;;5041671;28;20249;-44
2021/08/12 09:55:38;;;;;;;6.80;4.22;;;23.30;99.90;;;;;;5042132;28;20199;-47
2021/08/12 09:58:08;;;;;;;4.40;4.10;;;23.30;99.90;;;;;;5041272;28;20282;-44
2021/08/12 10:00:38;;;;;;;4.88;4.38;;;23.30;99.90;;;;;;5042593;28;20207;-48
2021/08/12 10:03:27;;;;;;;6.45;4.45;;;23.40;99.90;;;;;;5043404;28;20189;-45
2021/08/12 10:05:55;;;;;;;4.63;4.20;;;23.40;99.90;;;;;;5026458;28;20824;-44
2021/08/12 10:08:27;;;;;;;5.68;3.92;;;23.40;99.90;;;;;;5046546;28;20216;-44
2021/08/12 10:10:54;;;;;;;5.25;4.35;;;23.50;99.90;;;;;;5042071;28;20195;-43
2021/08/12 10:13:21;;;;;;;5.07;4.57;;;23.70;99.90;;;;;;5046645;28;20191;-44
2021/08/12 10:15:49;;;;;;;4.57;4.10;;;23.80;99.90;;;;;;5042469;28;20183;-45
2021/08/12 10:18:19;;;;;;;5.25;4.40;;;23.80;99.90;;;;;;5046198;28;20261;-44
2021/08/12 10:20:48;;;;;;;5.22;4.72;;;23.90;99.90;;;;;;5026367;28;20261;-46
2021/08/12 10:23:17;;;;;;;4.80;4.40;;;24.00;99.90;;;;;;5046064;28;20227;-47
2021/08/12 10:25:45;;;;;;;5.10;4.60;;;24.00;99.90;;;;;;5043284;28;20210;-44
2021/08/12 10:28:12;;;;;;;5.28;4.60;;;24.10;99.90;;;;;;5045706;28;20211;-45
2021/08/12 10:30:40;;;;;;;4.30;4.00;;;24.10;99.90;;;;;;5044293;28;20199;-45
2021/08/12 10:33:08;;;;;;;4.60;4.20;;;24.20;99.90;;;;;;5044163;28;20183;-44
2021/08/12 10:35:37;;;;;;;4.82;4.43;;;24.10;99.90;;;;;;5038936;28;20195;-45
2021/08/12 10:38:06;;;;;;;4.88;4.32;;;24.10;99.90;;;;;;5035927;28;20234;-44
2021/08/12 10:40:35;;;;;;;5.47;4.93;;;24.20;99.90;;;;;;5044881;28;20199;-48
2021/08/12 10:43:03;;;;;;;5.15;4.60;;;24.20;99.90;;;;;;5043538;28;20320;-46
2021/08/12 10:45:31;;;;;;;4.80;4.32;;;24.20;99.90;;;;;;5045693;28;20645;-47
2021/08/12 10:47:59;;;;;;;5.22;4.82;;;24.30;99.90;;;;;;5042442;28;20183;-44
2021/08/12 10:50:37;;;;;;;5.05;4.65;;;24.40;99.90;;;;;;5045720;28;20192;-43
2021/08/12 10:53:19;;;;;;;5.07;4.57;;;24.50;99.90;;;;;;5036863;28;20199;-45
2021/08/12 10:56:08;;;;;;;5.38;4.75;;;24.60;99.90;;;;;;5042074;28;20199;-46
2021/08/12 10:58:46;;;;;;;5.38;4.88;;;24.60;99.90;;;;;;5044320;28;20219;-46
2021/08/12 11:01:26;;;;;;;5.68;4.80;;;24.80;99.90;;;;;;5035801;28;20260;-44
2021/08/12 11:03:53;;;;;;;5.70;5.20;;;24.90;99.90;;;;;;5045436;28;20202;-44
2021/08/12 11:06:22;;;;;;;5.70;5.30;;;24.90;99.90;;;;;;5020227;28;20211;-44
2021/08/12 11:09:02;;;;;;;6.28;5.50;;;24.90;99.90;;;;;;5045303;28;20211;-44
2021/08/12 11:11:52;;;;;;;5.15;4.65;;;25.00;99.90;;;;;;5041451;28;20190;-44
2021/08/12 11:14:56;;;;;;;6.30;4.95;;;24.90;99.90;;;;;;5041645;28;20735;-45
2021/08/12 11:17:23;;;;;;;6.45;4.82;;;25.00;99.90;;;;;;5039307;28;20194;-47
2021/08/12 11:19:51;;;;;;;5.97;5.47;;;25.00;99.90;;;;;;5044975;28;20219;-46
2021/08/12 11:22:36;;;;;;;6.85;5.45;;;25.20;99.90;;;;;;5020507;28;20222;-47
2021/08/12 11:25:07;;;;;;;6.45;5.85;;;25.30;99.90;;;;;;5044421;28;20195;-46
2021/08/12 11:27:35;;;;;;;6.03;5.53;;;25.20;99.90;;;;;;5043156;28;20837;-45
2021/08/12 11:30:50;;;;;;;6.03;4.57;;;25.20;99.90;;;;;;5043068;28;20215;-49
2021/08/12 11:33:45;;;;;;;5.53;5.03;;;25.30;99.90;;;;;;5025028;28;20203;-47
2021/08/12 11:36:18;;;;;;;6.47;5.78;;;25.50;99.90;;;;;;5040409;28;20191;-45
2021/08/12 11:38:50;;;;;;;5.38;4.90;;;25.50;99.90;;;;;;5022702;28;20245;-45
2021/08/12 11:41:19;;;;;;;5.82;5.38;;;25.50;99.60;;;;;;5041239;28;20203;-48
2021/08/12 11:43:46;;;;;;;5.72;5.28;;;25.60;99.20;;;;;;5043696;28;20203;-48
2021/08/12 11:46:14;;;;;;;5.88;5.40;;;25.60;99.10;;;;;;5041930;28;20191;-44
2021/08/12 11:48:43;;;;;;;8.70;5.13;;;25.60;98.90;;;;;;5043435;28;20241;-44
2021/08/12 11:51:10;;;;;;;5.28;4.82;;;25.60;99.00;;;;;;5042635;28;20202;-45
2021/08/12 11:53:38;;;;;;;5.57;5.10;;;25.60;98.50;;;;;;5027140;28;20206;-46
2021/08/12 11:56:26;;;;;;;5.40;5.00;;;25.60;98.70;;;;;;5043374;28;20287;-44
2021/08/12 11:58:54;;;;;;;5.40;4.90;;;25.70;99.90;;;;;;5044053;28;20303;-46
2021/08/12 12:01:24;;;;;;;4.90;4.50;;;25.70;99.80;;;;;;5040469;28;20187;-45
2021/08/12 12:03:58;;;;;;;5.95;5.53;;;25.60;99.60;;;;;;5043980;28;20217;-44
2021/08/12 12:06:32;;;;;;;4.90;4.50;;;25.60;99.30;;;;;;5040691;28;20198;-44
2021/08/12 12:09:17;;;;;;;5.28;4.78;;;25.80;98.30;;;;;;5027863;28;20228;-48
2021/08/12 12:11:57;;;;;;;6.03;5.38;;;25.90;98.40;;;;;;5044164;28;20653;-44
2021/08/12 12:14:26;;;;;;;5.65;5.07;;;26.00;99.40;;;;;;5035278;28;20187;-44
2021/08/12 12:17:13;;;;;;;5.90;5.40;;;26.10;99.10;;;;;;5044077;28;20206;-44
2021/08/12 12:20:07;;;;;;;5.47;4.95;;;26.10;98.50;;;;;;5042573;28;20999;-44
2021/08/12 12:22:35;;;;;;;5.10;4.57;;;26.30;98.00;;;;;;5042259;28;20203;-47
2021/08/12 12:25:04;;;;;;;5.00;4.60;;;26.30;97.10;;;;;;5027218;28;20207;-45
2021/08/12 12:27:32;;;;;;;6.57;4.88;;;26.40;97.70;;;;;;5041012;28;20213;-44
2021/08/12 12:30:11;;;;;;;4.70;4.38;;;26.60;97.90;;;;;;5043552;28;20219;-44
2021/08/12 12:32:40;;;;;;;5.57;4.97;;;26.70;96.20;;;;;;5042531;28;20179;-47
2021/08/12 12:35:08;;;;;;;4.55;4.22;;;26.70;96.60;;;;;;5042289;28;20191;-44
2021/08/12 12:37:37;;;;;;;5.53;4.28;;;26.60;96.00;;;;;;5041281;28;20952;-45
2021/08/12 12:40:05;;;;;;;4.88;4.47;;;26.70;96.10;;;;;;5026623;28;20218;-47
2021/08/12 12:42:35;;;;;;;4.80;4.40;;;26.90;97.40;;;;;;5040632;28;20226;-46
2021/08/12 12:45:06;;;;;;;4.35;3.95;;;26.80;95.70;;;;;;5034766;28;20549;-44
2021/08/12 12:47:34;;;;;;;5.53;3.97;;;26.70;94.90;;;;;;5041321;28;20203;-47
2021/08/12 12:50:06;;;;;;;4.30;3.95;;;26.70;95.20;;;;;;5042734;28;20219;-49
2021/08/12 12:52:33;;;;;;;5.03;4.18;;;26.70;95.90;;;;;;5041350;28;20190;-47
2021/08/12 12:55:00;;;;;;;4.30;3.90;;;26.80;95.40;;;;;;5027398;28;20261;-44
2021/08/12 12:57:31;;;;;;;5.70;4.45;;;26.80;94.90;;;;;;5039686;28;20191;-45